createdAt,value
2022-12-20T00:01:32.059Z,98897.84
2022-12-20T00:04:03.562Z,98888.13
2022-12-20T00:06:31.122Z,98884.22
2022-12-20T00:09:00.464Z,98885.22
2022-12-20T00:11:28.767Z,98896.88
2022-12-20T00:13:56.319Z,98887.16
2022-12-20T00:16:26.217Z,98884.72
2022-12-20T00:18:56.773Z,98879.91
2022-12-20T00:21:24.594Z,98870.81
2022-12-20T00:23:53.071Z,98857.25
2022-12-20T00:26:23.280Z,98867.41
2022-12-20T00:28:51.249Z,98866.06
2022-12-20T00:31:20.531Z,98857.66
2022-12-20T00:33:49.438Z,98854.19
2022-12-20T00:36:18.157Z,98854.50
2022-12-20T00:38:48.100Z,98850.88
2022-12-20T00:41:18.925Z,98852.59
2022-12-20T00:43:46.398Z,98845.03
2022-12-20T00:46:15.250Z,98833.44
2022-12-20T00:48:42.707Z,98835.22
2022-12-20T00:51:15.760Z,98838.94
2022-12-20T00:53:43.704Z,98842.44
2022-12-20T00:56:12.479Z,98840.22
2022-12-20T00:58:41.309Z,98847.50
2022-12-20T01:01:21.635Z,98856.34
2022-12-20T01:03:49.961Z,98855.03
2022-12-20T01:06:18.253Z,98846.63
2022-12-20T01:08:45.964Z,98846.47
2022-12-20T01:11:16.231Z,98845.75
2022-12-20T01:13:46.547Z,98852.84
2022-12-20T01:16:25.867Z,98839.75
2022-12-20T01:18:54.385Z,98808.25
2022-12-20T01:21:24.015Z,98830.84
2022-12-20T01:23:51.719Z,98832.19
2022-12-20T01:26:22.295Z,98850.91
2022-12-20T01:28:54.313Z,98850.88
2022-12-20T01:31:22.057Z,98854.13
2022-12-20T01:33:50.797Z,98856.09
2022-12-20T01:36:27.197Z,98851.00
2022-12-20T01:39:00.252Z,98848.63
2022-12-20T01:41:28.264Z,98854.50
2022-12-20T01:44:07.341Z,98858.06
2022-12-20T01:46:39.691Z,98854.28
2022-12-20T01:49:30.621Z,98845.25
2022-12-20T01:52:03.718Z,98839.41
2022-12-20T01:54:32.651Z,98830.59
2022-12-20T01:57:06.223Z,98840.41
2022-12-20T01:59:35.625Z,98828.47
2022-12-20T02:02:07.579Z,98822.59
2022-12-20T02:04:35.191Z,98816.81
2022-12-20T02:07:03.535Z,98820.50
2022-12-20T02:09:32.492Z,98825.28
2022-12-20T02:12:10.990Z,98819.84
2022-12-20T02:14:44.509Z,98801.69
2022-12-20T02:17:30.567Z,98801.22
2022-12-20T02:20:13.106Z,98821.28
2022-12-20T02:22:55.939Z,98826.75
2022-12-20T02:25:53.108Z,98795.34
2022-12-20T02:28:59.900Z,98786.66
2022-12-20T02:31:33.400Z,98801.97
2022-12-20T02:34:03.175Z,98786.47
2022-12-20T02:36:30.650Z,98802.34
2022-12-20T02:38:58.052Z,98797.16
2022-12-20T02:41:30.734Z,98790.47
2022-12-20T02:44:26.302Z,98789.59
2022-12-20T02:46:55.184Z,98775.28
2022-12-20T02:49:25.782Z,98780.25
2022-12-20T02:51:54.158Z,98779.13
2022-12-20T02:54:21.894Z,98778.97
2022-12-20T02:57:16.510Z,98773.47
2022-12-20T02:59:57.894Z,98773.72
2022-12-20T03:02:26.744Z,98773.75
2022-12-20T03:04:55.375Z,98776.03
2022-12-20T03:07:23.652Z,98766.50
2022-12-20T03:09:51.395Z,98783.50
2022-12-20T03:12:18.759Z,98783.41
2022-12-20T03:14:46.194Z,98778.66
2022-12-20T03:17:15.564Z,98774.19
2022-12-20T03:19:43.200Z,98760.53
2022-12-20T03:22:11.520Z,98765.69
2022-12-20T03:24:38.990Z,98758.75
2022-12-20T03:27:11.367Z,98757.88
2022-12-20T03:29:39.236Z,98753.03
2022-12-20T03:32:06.939Z,98740.09
2022-12-20T03:34:34.327Z,98745.72
2022-12-20T03:37:02.359Z,98742.78
2022-12-20T03:39:29.811Z,98736.69
2022-12-20T03:41:57.328Z,98741.59
2022-12-20T03:44:25.429Z,98734.28
2022-12-20T03:46:53.057Z,98733.72
2022-12-20T03:49:21.509Z,98751.72
2022-12-20T03:51:51.468Z,98744.53
2022-12-20T03:54:19.255Z,98750.59
2022-12-20T03:57:07.327Z,98758.81
2022-12-20T03:59:35.641Z,98752.69
2022-12-20T04:02:04.656Z,98755.94
2022-12-20T04:04:32.291Z,98742.63
2022-12-20T04:06:59.692Z,98746.94
2022-12-20T04:09:27.552Z,98734.06
2022-12-20T04:12:01.906Z,98733.53
2022-12-20T04:14:31.125Z,98736.38
2022-12-20T04:16:58.730Z,98730.38
2022-12-20T04:19:26.133Z,98722.91
2022-12-20T04:22:02.640Z,98723.84
2022-12-20T04:24:40.594Z,98722.28
2022-12-20T04:27:19.418Z,98708.16
2022-12-20T04:29:47.335Z,98706.00
2022-12-20T04:32:17.290Z,98707.84
2022-12-20T04:34:44.732Z,98710.81
2022-12-20T04:37:12.100Z,98707.44
2022-12-20T04:39:47.243Z,98706.38
2022-12-20T04:42:24.929Z,98716.63
2022-12-20T04:44:54.073Z,98716.00
2022-12-20T04:47:25.342Z,98720.16
2022-12-20T04:49:54.030Z,98716.38
2022-12-20T04:52:47.133Z,98711.81
2022-12-20T04:55:15.544Z,98691.63
2022-12-20T04:57:42.925Z,98691.44
2022-12-20T05:00:11.156Z,98684.13
2022-12-20T05:02:43.563Z,98685.75
2022-12-20T05:05:14.537Z,98686.50
2022-12-20T05:07:48.150Z,98691.44
2022-12-20T05:10:15.568Z,98686.44
2022-12-20T05:12:44.720Z,98681.00
2022-12-20T05:15:19.344Z,98673.53
2022-12-20T05:17:46.909Z,98672.91
2022-12-20T05:20:14.607Z,98675.44
2022-12-20T05:23:02.896Z,98664.28
2022-12-20T05:25:48.855Z,98671.28
2022-12-20T05:28:17.169Z,98661.53
2022-12-20T05:30:44.610Z,98666.75
2022-12-20T05:33:12.887Z,98665.72
2022-12-20T05:35:42.830Z,98654.97
2022-12-20T05:38:13.026Z,98657.50
2022-12-20T05:40:41.473Z,98655.56
2022-12-20T05:43:09.982Z,98640.44
2022-12-20T05:45:51.808Z,98662.72
2022-12-20T05:48:25.889Z,98658.16
2022-12-20T05:50:53.925Z,98662.16
2022-12-20T05:53:30.149Z,98666.47
2022-12-20T05:56:01.382Z,98667.94
2022-12-20T05:58:34.764Z,98656.41
2022-12-20T06:01:06.890Z,98652.16
2022-12-20T06:03:39.067Z,98645.72
2022-12-20T06:06:14.745Z,98640.56
2022-12-20T06:08:45.369Z,98638.50
2022-12-20T06:11:18.688Z,98640.50
2022-12-20T06:13:51.356Z,98641.56
2022-12-20T06:16:20.681Z,98636.19
2022-12-20T06:18:48.452Z,98642.56
2022-12-20T06:21:17.000Z,98636.91
2022-12-20T06:23:45.163Z,98649.25
2022-12-20T06:26:14.384Z,98654.94
2022-12-20T06:28:52.702Z,98652.56
2022-12-20T06:31:34.906Z,98649.25
2022-12-20T06:34:02.380Z,98641.22
2022-12-20T06:36:34.193Z,98643.56
2022-12-20T06:39:07.603Z,98646.19
2022-12-20T06:41:40.943Z,98650.66
2022-12-20T06:44:08.552Z,98660.41
2022-12-20T06:46:36.167Z,98662.13
2022-12-20T06:49:04.213Z,98662.03
2022-12-20T06:51:32.783Z,98664.63
2022-12-20T06:54:01.145Z,98660.59
2022-12-20T06:56:36.036Z,98653.47
2022-12-20T06:59:09.512Z,98661.91
2022-12-20T07:01:36.929Z,98661.81
2022-12-20T07:04:04.719Z,98661.16
2022-12-20T07:06:32.329Z,98664.72
2022-12-20T07:09:00.134Z,98666.47
2022-12-20T07:11:27.489Z,98666.53
2022-12-20T07:13:58.845Z,98666.06
2022-12-20T07:16:26.416Z,98676.44
2022-12-20T07:18:55.423Z,98666.03
2022-12-20T07:21:22.887Z,98670.56
2022-12-20T07:23:50.253Z,98683.63
2022-12-20T07:26:17.608Z,98685.94
2022-12-20T07:28:45.075Z,98677.09
2022-12-20T07:31:12.448Z,98674.31
2022-12-20T07:33:40.356Z,98671.06
2022-12-20T07:36:13.550Z,98668.84
2022-12-20T07:38:40.867Z,98673.47
2022-12-20T07:41:13.782Z,98674.16
2022-12-20T07:43:41.333Z,98677.84
2022-12-20T07:46:12.957Z,98675.34
2022-12-20T07:48:40.446Z,98673.41
2022-12-20T07:51:34.376Z,98682.78
2022-12-20T07:54:11.477Z,98673.50
2022-12-20T07:56:42.010Z,98674.53
2022-12-20T07:59:12.247Z,98665.41
2022-12-20T08:01:40.817Z,98658.72
2022-12-20T08:04:13.432Z,98655.81
2022-12-20T08:06:41.925Z,98660.31
2022-12-20T08:09:12.611Z,98660.16
2022-12-20T08:11:42.055Z,98660.09
2022-12-20T08:14:10.141Z,98664.00
2022-12-20T08:16:37.691Z,98669.44
2022-12-20T08:19:05.295Z,98664.22
2022-12-20T08:21:32.705Z,98668.00
2022-12-20T08:24:00.088Z,98666.06
2022-12-20T08:26:27.731Z,98661.03
2022-12-20T08:28:55.593Z,98663.28
2022-12-20T08:31:23.445Z,98658.94
2022-12-20T08:33:50.910Z,98651.69
2022-12-20T08:36:18.326Z,98653.00
2022-12-20T08:38:45.697Z,98634.63
2022-12-20T08:41:15.152Z,98638.91
2022-12-20T08:43:43.563Z,98631.97
2022-12-20T08:46:14.692Z,98624.88
2022-12-20T08:48:42.103Z,98618.34
2022-12-20T08:51:12.219Z,98613.34
2022-12-20T08:53:40.051Z,98615.91
2022-12-20T08:56:13.996Z,98620.41
2022-12-20T08:58:42.736Z,98611.13
2022-12-20T09:01:12.961Z,98615.31
2022-12-20T09:03:41.040Z,98602.38
2022-12-20T09:06:10.989Z,98601.94
2022-12-20T09:08:39.564Z,98601.13
2022-12-20T09:11:07.732Z,98598.19
2022-12-20T09:13:43.118Z,98590.50
2022-12-20T09:16:12.986Z,98600.31
2022-12-20T09:18:40.531Z,98600.34
2022-12-20T09:21:09.059Z,98595.59
2022-12-20T09:23:37.590Z,98603.44
2022-12-20T09:26:07.011Z,98600.22
2022-12-20T09:28:34.754Z,98602.56
2022-12-20T09:31:07.753Z,98592.66
2022-12-20T09:33:36.544Z,98586.69
2022-12-20T09:36:04.329Z,98589.81
2022-12-20T09:38:32.801Z,98573.81
2022-12-20T09:41:03.669Z,98584.44
2022-12-20T09:43:32.061Z,98603.41
2022-12-20T09:46:02.082Z,98605.16
2022-12-20T09:48:39.831Z,98609.28
2022-12-20T09:51:27.381Z,98609.50
2022-12-20T09:54:31.230Z,98594.50
2022-12-20T09:57:08.000Z,98586.44
2022-12-20T09:59:40.391Z,98585.13
2022-12-20T10:02:44.562Z,98573.41
2022-12-20T10:05:02.196Z,98574.34
2022-12-20T10:08:04.356Z,98565.91
2022-12-20T10:10:41.713Z,98562.88
2022-12-20T10:13:42.108Z,98557.47
2022-12-20T10:16:18.973Z,98563.81
2022-12-20T10:18:59.417Z,98569.41
2022-12-20T10:21:33.638Z,98566.59
2022-12-20T10:24:10.599Z,98572.66
2022-12-20T10:26:37.961Z,98573.13
2022-12-20T10:29:05.347Z,98563.88
2022-12-20T10:31:32.741Z,98554.41
2022-12-20T10:34:00.239Z,98548.06
2022-12-20T10:36:29.680Z,98551.69
2022-12-20T10:39:08.833Z,98545.38
2022-12-20T10:41:45.015Z,98532.59
2022-12-20T10:44:17.962Z,98535.97
2022-12-20T10:46:48.427Z,98538.94
2022-12-20T10:49:28.587Z,98534.53
2022-12-20T10:52:01.886Z,98541.81
2022-12-20T10:54:37.194Z,98540.22
2022-12-20T10:57:28.158Z,98534.88
2022-12-20T10:59:57.790Z,98523.06
2022-12-20T11:02:37.099Z,98526.50
2022-12-20T11:05:12.996Z,98519.66
2022-12-20T11:10:41.935Z,98527.94
2022-12-20T11:13:29.622Z,98514.63
2022-12-20T11:16:01.531Z,98514.56
2022-12-20T11:19:04.408Z,98516.78
2022-12-20T11:21:58.969Z,98504.34
2022-12-20T11:24:37.881Z,98493.22
2022-12-20T11:28:04.517Z,98486.09
2022-12-20T11:30:40.861Z,98500.31
2022-12-20T11:33:14.396Z,98487.19
2022-12-20T11:36:00.076Z,98490.25
2022-12-20T11:38:30.760Z,98472.78
2022-12-20T11:41:21.501Z,98471.97
2022-12-20T11:44:28.928Z,98468.47
2022-12-20T11:47:12.079Z,98469.63
2022-12-20T11:50:12.033Z,98464.00
2022-12-20T11:52:48.313Z,98468.06
2022-12-20T11:55:33.345Z,98453.94
2022-12-20T11:58:18.432Z,98451.44
2022-12-20T12:01:02.089Z,98437.75
2022-12-20T12:03:37.332Z,98441.69
2022-12-20T12:06:21.401Z,98431.13
2022-12-20T12:09:07.665Z,98428.28
2022-12-20T12:14:48.128Z,98418.06
2022-12-20T12:17:25.546Z,98414.53
2022-12-20T12:19:55.895Z,98419.34
2022-12-20T12:22:29.308Z,98414.91
2022-12-20T12:24:59.572Z,98433.09
2022-12-20T12:27:28.620Z,98441.47
2022-12-20T12:29:57.926Z,98436.28
2022-12-20T12:32:34.062Z,98430.13
2022-12-20T12:35:07.335Z,98429.72
2022-12-20T12:38:11.969Z,98427.00
2022-12-20T12:40:53.169Z,98418.53
2022-12-20T12:43:35.736Z,98412.81
2022-12-20T12:46:14.247Z,98416.53
2022-12-20T12:48:56.330Z,98409.09
2022-12-20T12:51:28.460Z,98398.41
2022-12-20T12:54:09.491Z,98403.19
2022-12-20T12:56:44.607Z,98409.47
2022-12-20T12:59:24.951Z,98403.03
2022-12-20T13:01:56.002Z,98401.50
2022-12-20T13:04:29.057Z,98413.25
2022-12-20T13:06:58.077Z,98407.84
2022-12-20T13:09:36.904Z,98405.19
2022-12-20T13:12:36.898Z,98401.00
2022-12-20T13:15:22.889Z,98374.69
2022-12-20T13:18:01.628Z,98371.75
2022-12-20T13:20:30.472Z,98356.13
2022-12-20T13:23:12.910Z,98355.31
2022-12-20T13:25:43.055Z,98355.53
2022-12-20T13:28:23.538Z,98352.06
2022-12-20T13:30:53.996Z,98348.38
2022-12-20T13:33:40.080Z,98341.88
2022-12-20T13:36:10.403Z,98347.69
2022-12-20T13:38:39.849Z,98353.50
2022-12-20T13:41:22.426Z,98352.72
2022-12-20T13:43:51.576Z,98369.69
2022-12-20T13:46:30.624Z,98370.03
2022-12-20T13:49:03.046Z,98379.81
2022-12-20T13:51:30.821Z,98384.84
2022-12-20T13:53:58.774Z,98372.97
2022-12-20T13:56:29.662Z,98378.09
2022-12-20T13:58:58.802Z,98374.06
2022-12-20T14:01:27.006Z,98375.91
2022-12-20T14:03:54.913Z,98380.91
2022-12-20T14:06:26.999Z,98369.38
2022-12-20T14:08:54.731Z,98368.09
2022-12-20T14:11:26.498Z,98362.22
2022-12-20T14:13:59.187Z,98361.41
2022-12-20T14:16:29.221Z,98355.91
2022-12-20T14:19:07.983Z,98346.47
2022-12-20T14:21:37.486Z,98333.31
2022-12-20T14:24:05.171Z,98341.63
2022-12-20T14:26:52.657Z,98330.41
2022-12-20T14:29:25.152Z,98333.44
2022-12-20T14:31:52.495Z,98333.44
2022-12-20T14:34:33.099Z,98327.19
2022-12-20T14:37:23.499Z,98320.16
2022-12-20T14:40:09.651Z,98322.88
2022-12-20T14:42:39.000Z,98320.28
2022-12-20T14:45:10.770Z,98314.34
2022-12-20T14:47:48.170Z,98306.47
2022-12-20T14:50:24.795Z,98300.47
2022-12-20T14:52:52.275Z,98306.56
2022-12-20T14:55:33.137Z,98312.44
2022-12-20T14:58:00.670Z,98318.13
2022-12-20T15:00:30.675Z,98313.03
2022-12-20T15:03:01.033Z,98314.88
2022-12-20T15:05:43.549Z,98315.38
2022-12-20T15:08:15.261Z,98309.59
2022-12-20T15:10:49.834Z,98304.84
2022-12-20T15:13:18.815Z,98311.44
2022-12-20T15:15:46.389Z,98299.41
2022-12-20T15:18:20.031Z,98296.88
2022-12-20T15:20:50.021Z,98289.31
2022-12-20T15:23:22.056Z,98280.56
2022-12-20T15:25:50.073Z,98270.56
2022-12-20T15:28:22.776Z,98262.56
2022-12-20T15:30:51.849Z,98268.59
2022-12-20T15:33:22.028Z,98263.59
2022-12-20T15:35:49.730Z,98257.19
2022-12-20T15:38:40.830Z,98254.03
2022-12-20T15:41:17.878Z,98247.56
2022-12-20T15:43:45.327Z,98257.41
2022-12-20T15:46:12.983Z,98248.59
2022-12-20T15:48:40.464Z,98265.50
2022-12-20T15:51:21.761Z,98265.78
2022-12-20T15:53:49.110Z,98270.09
2022-12-20T15:56:21.826Z,98266.22
2022-12-20T15:58:49.842Z,98264.97
2022-12-20T16:01:23.154Z,98264.44
2022-12-20T16:03:50.689Z,98269.97
2022-12-20T16:06:18.379Z,98263.34
2022-12-20T16:08:45.923Z,98260.16
2022-12-20T16:11:28.223Z,98265.50
2022-12-20T16:13:56.997Z,98267.09
2022-12-20T16:16:28.992Z,98271.97
2022-12-20T16:18:56.641Z,98267.28
2022-12-20T16:21:30.897Z,98265.88
2022-12-20T16:23:58.440Z,98268.50
2022-12-20T16:26:26.801Z,98259.63
2022-12-20T16:28:55.787Z,98264.19
2022-12-20T16:31:30.986Z,98259.50
2022-12-20T16:34:03.480Z,98269.72
2022-12-20T16:36:31.411Z,98264.00
2022-12-20T16:38:59.056Z,98261.56
2022-12-20T16:41:28.530Z,98263.28
2022-12-20T16:43:58.033Z,98264.13
2022-12-20T16:46:27.543Z,98267.94
2022-12-20T16:48:57.001Z,98256.53
2022-12-20T16:51:40.427Z,98260.47
2022-12-20T16:54:22.283Z,98256.63
2022-12-20T16:56:56.774Z,98264.13
2022-12-20T16:59:25.308Z,98267.47
2022-12-20T17:01:55.271Z,98277.25
2022-12-20T17:04:23.678Z,98271.47
2022-12-20T17:06:51.286Z,98285.38
2022-12-20T17:09:20.143Z,98274.44
2022-12-20T17:11:50.196Z,98272.22
2022-12-20T17:14:19.759Z,98277.19
2022-12-20T17:16:47.285Z,98277.19
2022-12-20T17:19:14.681Z,98275.63
2022-12-20T17:24:32.475Z,98270.69
2022-12-20T17:27:00.377Z,98261.97
2022-12-20T17:29:27.923Z,98271.78
2022-12-20T17:31:55.403Z,98279.03
2022-12-20T17:34:24.993Z,98274.78
2022-12-20T17:36:54.751Z,98266.06
2022-12-20T17:39:22.749Z,98264.94
2022-12-20T17:41:50.184Z,98270.66
2022-12-20T17:44:18.975Z,98255.88
2022-12-20T17:46:46.438Z,98247.34
2022-12-20T17:49:14.159Z,98248.31
2022-12-20T17:51:41.846Z,98244.72
2022-12-20T17:54:18.532Z,98233.59
2022-12-20T17:56:46.433Z,98225.63
2022-12-20T17:59:14.726Z,98230.69
2022-12-20T18:01:43.193Z,98225.34
2022-12-20T18:04:13.741Z,98226.94
2022-12-20T18:06:42.378Z,98220.22
2022-12-20T18:09:27.959Z,98234.19
2022-12-20T18:11:55.262Z,98226.56
2022-12-20T18:14:22.648Z,98220.94
2022-12-20T18:16:50.150Z,98221.31
2022-12-20T18:19:18.606Z,98205.31
2022-12-20T18:21:46.121Z,98209.03
2022-12-20T18:24:14.722Z,98206.06
2022-12-20T18:26:44.607Z,98200.72
2022-12-20T18:29:12.165Z,98200.72
2022-12-20T18:31:39.659Z,98206.59
2022-12-20T18:34:07.514Z,98205.88
2022-12-20T18:36:37.032Z,98208.84
2022-12-20T18:39:06.426Z,98210.47
2022-12-20T18:41:34.260Z,98199.31
2022-12-20T18:44:03.611Z,98208.28
2022-12-20T18:46:31.381Z,98226.63
2022-12-20T18:49:00.618Z,98217.63
2022-12-20T18:51:30.418Z,98219.47
2022-12-20T18:53:58.681Z,98234.72
2022-12-20T18:56:31.883Z,98233.53
2022-12-20T18:59:07.884Z,98228.72
2022-12-20T19:01:38.350Z,98229.97
2022-12-20T19:04:07.545Z,98218.22
2022-12-20T19:06:36.248Z,98219.81
2022-12-20T19:09:06.184Z,98220.41
2022-12-20T19:11:34.018Z,98219.88
2022-12-20T19:14:01.599Z,98225.91
2022-12-20T19:16:32.145Z,98221.69
2022-12-20T19:19:00.850Z,98220.16
2022-12-20T19:21:30.677Z,98228.25
2022-12-20T19:24:00.326Z,98232.44
2022-12-20T19:26:29.771Z,98225.41
2022-12-20T19:28:57.790Z,98223.66
2022-12-20T19:31:27.538Z,98232.19
2022-12-20T19:34:00.343Z,98225.47
2022-12-20T19:36:34.709Z,98232.34
2022-12-20T19:39:05.500Z,98220.28
2022-12-20T19:41:34.555Z,98207.94
2022-12-20T19:44:02.640Z,98218.31
2022-12-20T19:46:30.511Z,98205.84
2022-12-20T19:48:59.332Z,98200.06
2022-12-20T19:51:28.277Z,98192.75
2022-12-20T19:53:56.986Z,98194.44
2022-12-20T19:56:27.655Z,98196.06
2022-12-20T19:58:55.629Z,98191.72
2022-12-20T20:01:25.945Z,98181.16
2022-12-20T20:03:58.660Z,98193.16
2022-12-20T20:06:27.048Z,98190.88
2022-12-20T20:08:57.584Z,98189.50
2022-12-20T20:11:25.447Z,98192.47
2022-12-20T20:13:52.856Z,98201.66
2022-12-20T20:16:22.861Z,98196.88
2022-12-20T20:18:50.687Z,98186.59
2022-12-20T20:21:22.314Z,98186.00
2022-12-20T20:23:54.091Z,98179.84
2022-12-20T20:26:24.636Z,98178.06
2022-12-20T20:28:52.391Z,98184.25
2022-12-20T20:31:20.800Z,98188.84
2022-12-20T20:33:48.278Z,98198.28
2022-12-20T20:36:18.058Z,98190.22
2022-12-20T20:38:45.734Z,98200.44
2022-12-20T20:41:14.075Z,98205.41
2022-12-20T20:43:41.738Z,98205.88
2022-12-20T20:46:12.141Z,98209.34
2022-12-20T20:48:40.329Z,98214.69
2022-12-20T20:51:07.936Z,98218.16
2022-12-20T20:53:35.838Z,98217.19
2022-12-20T20:56:04.816Z,98216.72
2022-12-20T20:58:32.984Z,98220.84
2022-12-20T21:01:02.337Z,98229.25
2022-12-20T21:03:30.927Z,98223.84
2022-12-20T21:08:45.959Z,98244.16
2022-12-20T21:11:13.593Z,98237.41
2022-12-20T21:13:41.316Z,98248.06
2022-12-20T21:16:16.053Z,98248.25
2022-12-20T21:18:43.451Z,98247.22
2022-12-20T21:21:12.521Z,98251.81
2022-12-20T21:23:43.412Z,98256.00
2022-12-20T21:26:10.781Z,98241.63
2022-12-20T21:28:38.485Z,98237.66
2022-12-20T21:31:09.638Z,98248.78
2022-12-20T21:33:37.302Z,98252.44
2022-12-20T21:36:13.921Z,98245.00
2022-12-20T21:38:41.472Z,98248.56
2022-12-20T21:41:12.364Z,98237.84
2022-12-20T21:43:39.753Z,98230.97
2022-12-20T21:46:11.392Z,98228.25
2022-12-20T21:48:43.907Z,98229.63
2022-12-20T21:51:15.324Z,98208.00
2022-12-20T21:53:46.599Z,98218.03
2022-12-20T21:56:15.875Z,98218.97
2022-12-20T21:58:44.089Z,98215.97
2022-12-20T22:01:14.354Z,98201.75
2022-12-20T22:03:42.140Z,98198.59
2022-12-20T22:06:10.681Z,98213.03
2022-12-20T22:08:38.084Z,98216.56
2022-12-20T22:11:07.564Z,98209.41
2022-12-20T22:13:41.096Z,98198.09
2022-12-20T22:16:11.396Z,98201.81
2022-12-20T22:18:39.327Z,98199.06
2022-12-20T22:21:09.351Z,98199.53
2022-12-20T22:23:37.615Z,98202.28
2022-12-20T22:26:07.577Z,98205.34
2022-12-20T22:28:35.195Z,98204.66
2022-12-20T22:31:10.573Z,98207.78
2022-12-20T22:33:38.935Z,98207.94
2022-12-20T22:36:07.697Z,98215.31
2022-12-20T22:38:35.586Z,98230.69
2022-12-20T22:41:09.823Z,98233.13
2022-12-20T22:43:38.654Z,98221.81
2022-12-20T22:46:06.268Z,98225.34
2022-12-20T22:48:34.177Z,98225.53
2022-12-20T22:51:03.861Z,98204.00
2022-12-20T22:53:33.743Z,98208.38
2022-12-20T22:56:02.530Z,98201.03
2022-12-20T22:58:30.694Z,98208.88
2022-12-20T23:01:03.427Z,98216.50
2022-12-20T23:03:31.782Z,98215.88
2022-12-20T23:06:01.678Z,98220.09
2022-12-20T23:08:31.748Z,98216.50
2022-12-20T23:11:17.818Z,98210.41
2022-12-20T23:14:03.937Z,98204.63
2022-12-20T23:16:31.413Z,98206.88
2022-12-20T23:19:00.384Z,98203.38
2022-12-20T23:21:47.309Z,98194.41
2022-12-20T23:24:15.212Z,98188.53
2022-12-20T23:26:43.365Z,98187.50
2022-12-20T23:29:11.658Z,98179.63
2022-12-20T23:31:39.003Z,98173.63
2022-12-20T23:34:07.158Z,98167.06
2022-12-20T23:36:34.853Z,98176.75
2022-12-20T23:39:02.795Z,98164.91
2022-12-20T23:41:30.220Z,98160.28
2022-12-20T23:43:57.691Z,98171.72
2022-12-20T23:46:25.754Z,98167.63
2022-12-20T23:48:53.783Z,98172.31
2022-12-20T23:51:22.081Z,98171.78
2022-12-20T23:53:51.419Z,98165.81
2022-12-20T23:56:21.051Z,98178.72
2022-12-20T23:58:53.659Z,98178.84
